sensor_id;sensor_type;location;lat;lon;timestamp;pressure;altitude;pressure_sealevel;temperature;humidity
73501;BME280;61721;42.206;25.320;2022-09-09T00:01:50;99804.97;;;21.15;43.31
73501;BME280;61721;42.206;25.320;2022-09-09T00:04:26;99803.28;;;21.14;43.47
73501;BME280;61721;42.206;25.320;2022-09-09T00:07:01;99801.78;;;21.12;43.48
73501;BME280;61721;42.206;25.320;2022-09-09T00:09:35;99806.78;;;21.08;43.66
73501;BME280;61721;42.206;25.320;2022-09-09T00:12:11;99808.25;;;21.04;43.67
73501;BME280;61721;42.206;25.320;2022-09-09T00:14:48;99807.19;;;20.99;44.05
73501;BME280;61721;42.206;25.320;2022-09-09T00:17:35;99806.78;;;20.95;44.12
73501;BME280;61721;42.206;25.320;2022-09-09T00:20:12;99811.16;;;20.89;44.16
73501;BME280;61721;42.206;25.320;2022-09-09T00:22:46;99811.34;;;20.88;44.24
73501;BME280;61721;42.206;25.320;2022-09-09T00:25:26;99809.72;;;20.87;44.33
73501;BME280;61721;42.206;25.320;2022-09-09T00:27:56;99810.75;;;20.86;44.26
73501;BME280;61721;42.206;25.320;2022-09-09T00:30:27;99822.47;;;20.86;44.35
73501;BME280;61721;42.206;25.320;2022-09-09T00:33:01;99818.91;;;20.86;44.32
73501;BME280;61721;42.206;25.320;2022-09-09T00:35:35;99819.28;;;20.83;44.51
73501;BME280;61721;42.206;25.320;2022-09-09T00:38:11;99814.91;;;20.75;44.69
73501;BME280;61721;42.206;25.320;2022-09-09T00:40:46;99812.16;;;20.69;44.84
73501;BME280;61721;42.206;25.320;2022-09-09T00:43:26;99813.41;;;20.66;44.88
73501;BME280;61721;42.206;25.320;2022-09-09T00:46:17;99809.41;;;20.62;44.95
73501;BME280;61721;42.206;25.320;2022-09-09T00:48:54;99809.63;;;20.61;44.97
73501;BME280;61721;42.206;25.320;2022-09-09T00:51:32;99814.03;;;20.62;44.96
73501;BME280;61721;42.206;25.320;2022-09-09T00:54:20;99814.22;;;20.60;44.96
73501;BME280;61721;42.206;25.320;2022-09-09T00:57:01;99817.97;;;20.59;45.12
73501;BME280;61721;42.206;25.320;2022-09-09T00:59:39;99820.06;;;20.57;45.20
73501;BME280;61721;42.206;25.320;2022-09-09T01:02:18;99820.06;;;20.57;45.21
73501;BME280;61721;42.206;25.320;2022-09-09T01:04:49;99814.84;;;20.56;45.13
73501;BME280;61721;42.206;25.320;2022-09-09T01:07:19;99807.06;;;20.53;45.34
73501;BME280;61721;42.206;25.320;2022-09-09T01:09:57;99812.94;;;20.49;45.50
73501;BME280;61721;42.206;25.320;2022-09-09T01:12:37;99810.63;;;20.46;45.63
73501;BME280;61721;42.206;25.320;2022-09-09T01:15:12;99810.41;;;20.41;45.90
73501;BME280;61721;42.206;25.320;2022-09-09T01:17:50;99814.53;;;20.37;46.12
73501;BME280;61721;42.206;25.320;2022-09-09T01:20:23;99819.13;;;20.37;46.17
73501;BME280;61721;42.206;25.320;2022-09-09T01:23:09;99814.53;;;20.37;46.04
73501;BME280;61721;42.206;25.320;2022-09-09T01:26:08;99807.44;;;20.36;45.97
73501;BME280;61721;42.206;25.320;2022-09-09T01:28:39;99799.69;;;20.33;45.97
73501;BME280;61721;42.206;25.320;2022-09-09T01:31:11;99812.66;;;20.31;46.34
73501;BME280;61721;42.206;25.320;2022-09-09T01:33:42;99813.28;;;20.33;46.08
73501;BME280;61721;42.206;25.320;2022-09-09T01:36:13;99815.78;;;20.35;46.15
73501;BME280;61721;42.206;25.320;2022-09-09T01:38:43;99818.50;;;20.35;46.07
73501;BME280;61721;42.206;25.320;2022-09-09T01:41:13;99818.31;;;20.36;46.23
73501;BME280;61721;42.206;25.320;2022-09-09T01:43:41;99818.72;;;20.33;46.21
73501;BME280;61721;42.206;25.320;2022-09-09T01:46:11;99816.19;;;20.32;46.38
73501;BME280;61721;42.206;25.320;2022-09-09T01:48:41;99824.53;;;20.30;46.50
73501;BME280;61721;42.206;25.320;2022-09-09T01:51:10;99816.13;;;20.25;46.57
73501;BME280;61721;42.206;25.320;2022-09-09T01:53:39;99810.47;;;20.20;46.85
73501;BME280;61721;42.206;25.320;2022-09-09T01:56:11;99808.78;;;20.19;45.93
73501;BME280;61721;42.206;25.320;2022-09-09T01:58:57;99808.59;;;20.21;46.48
73501;BME280;61721;42.206;25.320;2022-09-09T02:01:39;99806.06;;;20.19;46.77
73501;BME280;61721;42.206;25.320;2022-09-09T02:04:21;99799.78;;;20.19;47.02
73501;BME280;61721;42.206;25.320;2022-09-09T02:06:54;99805.63;;;20.16;47.38
73501;BME280;61721;42.206;25.320;2022-09-09T02:09:24;99815.25;;;20.18;47.57
73501;BME280;61721;42.206;25.320;2022-09-09T02:11:59;99808.13;;;20.17;47.67
73501;BME280;61721;42.206;25.320;2022-09-09T02:14:36;99814.63;;;20.16;47.73
73501;BME280;61721;42.206;25.320;2022-09-09T02:17:09;99806.47;;;20.16;47.84
73501;BME280;61721;42.206;25.320;2022-09-09T02:19:42;99805.22;;;20.19;47.95
73501;BME280;61721;42.206;25.320;2022-09-09T02:22:13;99800.81;;;20.18;47.91
73501;BME280;61721;42.206;25.320;2022-09-09T02:24:44;99806.25;;;20.18;48.15
73501;BME280;61721;42.206;25.320;2022-09-09T02:27:14;99796.03;;;20.20;48.05
73501;BME280;61721;42.206;25.320;2022-09-09T02:29:45;99798.56;;;20.21;48.08
73501;BME280;61721;42.206;25.320;2022-09-09T02:32:15;99797.25;;;20.17;48.10
73501;BME280;61721;42.206;25.320;2022-09-09T02:34:48;99798.94;;;20.18;48.39
73501;BME280;61721;42.206;25.320;2022-09-09T02:37:19;99800.22;;;20.16;48.19
73501;BME280;61721;42.206;25.320;2022-09-09T02:39:49;99801.84;;;20.10;48.06
73501;BME280;61721;42.206;25.320;2022-09-09T02:42:18;99806.00;;;20.06;48.19
73501;BME280;61721;42.206;25.320;2022-09-09T02:44:48;99805.34;;;20.04;48.28
73501;BME280;61721;42.206;25.320;2022-09-09T02:47:28;99807.03;;;20.05;48.26
73501;BME280;61721;42.206;25.320;2022-09-09T02:50:05;99807.22;;;20.03;48.38
73501;BME280;61721;42.206;25.320;2022-09-09T02:52:54;99805.13;;;19.99;48.37
73501;BME280;61721;42.206;25.320;2022-09-09T02:55:33;99802.59;;;19.97;48.54
73501;BME280;61721;42.206;25.320;2022-09-09T02:58:06;99798.81;;;19.92;48.46
73501;BME280;61721;42.206;25.320;2022-09-09T03:00:40;99798.19;;;19.90;48.74
73501;BME280;61721;42.206;25.320;2022-09-09T03:03:09;99795.84;;;19.87;48.65
73501;BME280;61721;42.206;25.320;2022-09-09T03:05:37;99786.66;;;19.88;48.92
73501;BME280;61721;42.206;25.320;2022-09-09T03:08:07;99782.25;;;19.87;48.98
73501;BME280;61721;42.206;25.320;2022-09-09T03:10:36;99784.97;;;19.87;48.91
73501;BME280;61721;42.206;25.320;2022-09-09T03:13:05;99792.09;;;19.88;49.00
73501;BME280;61721;42.206;25.320;2022-09-09T03:15:33;99797.53;;;19.88;48.97
73501;BME280;61721;42.206;25.320;2022-09-09T03:18:03;99795.84;;;19.87;49.00
73501;BME280;61721;42.206;25.320;2022-09-09T03:20:32;99804.41;;;19.84;49.02
73501;BME280;61721;42.206;25.320;2022-09-09T03:23:00;99810.03;;;19.82;48.99
73501;BME280;61721;42.206;25.320;2022-09-09T03:25:29;99808.56;;;19.80;49.19
73501;BME280;61721;42.206;25.320;2022-09-09T03:27:58;99807.66;;;19.73;49.01
73501;BME280;61721;42.206;25.320;2022-09-09T03:30:28;99820.22;;;19.74;49.23
73501;BME280;61721;42.206;25.320;2022-09-09T03:32:56;99823.59;;;19.76;49.31
73501;BME280;61721;42.206;25.320;2022-09-09T03:35:26;99814.78;;;19.74;49.36
73501;BME280;61721;42.206;25.320;2022-09-09T03:37:57;99822.94;;;19.74;49.38
73501;BME280;61721;42.206;25.320;2022-09-09T03:40:25;99813.28;;;19.71;49.35
73501;BME280;61721;42.206;25.320;2022-09-09T03:42:53;99812.47;;;19.71;49.27
73501;BME280;61721;42.206;25.320;2022-09-09T03:45:23;99817.25;;;19.69;49.37
73501;BME280;61721;42.206;25.320;2022-09-09T03:47:51;99822.69;;;19.69;49.45
73501;BME280;61721;42.206;25.320;2022-09-09T03:50:21;99813.69;;;19.68;49.49
73501;BME280;61721;42.206;25.320;2022-09-09T03:52:52;99809.88;;;19.62;49.72
73501;BME280;61721;42.206;25.320;2022-09-09T03:55:31;99811.97;;;19.60;49.75
73501;BME280;61721;42.206;25.320;2022-09-09T03:58:01;99826.38;;;19.61;49.77
73501;BME280;61721;42.206;25.320;2022-09-09T04:00:34;99828.91;;;19.62;49.78
73501;BME280;61721;42.206;25.320;2022-09-09T04:03:03;99821.19;;;19.66;49.51
73501;BME280;61721;42.206;25.320;2022-09-09T04:05:32;99819.31;;;19.67;49.46
73501;BME280;61721;42.206;25.320;2022-09-09T04:08:02;99826.25;;;19.69;49.45
73501;BME280;61721;42.206;25.320;2022-09-09T04:10:31;99824.56;;;19.68;49.46
73501;BME280;61721;42.206;25.320;2022-09-09T04:12:59;99823.97;;;19.73;49.52
73501;BME280;61721;42.206;25.320;2022-09-09T04:15:28;99827.56;;;19.80;49.38
73501;BME280;61721;42.206;25.320;2022-09-09T04:17:56;99826.78;;;19.86;49.39
73501;BME280;61721;42.206;25.320;2022-09-09T04:20:24;99825.13;;;19.91;49.26
73501;BME280;61721;42.206;25.320;2022-09-09T04:22:53;99826.84;;;19.99;49.20
73501;BME280;61721;42.206;25.320;2022-09-09T04:25:23;99827.34;;;20.09;49.16
73501;BME280;61721;42.206;25.320;2022-09-09T04:27:53;99833.06;;;20.21;49.14
73501;BME280;61721;42.206;25.320;2022-09-09T04:30:22;99828.53;;;20.34;48.91
73501;BME280;61721;42.206;25.320;2022-09-09T04:32:51;99828.81;;;20.46;48.76
73501;BME280;61721;42.206;25.320;2022-09-09T04:35:19;99833.88;;;20.56;48.68
73501;BME280;61721;42.206;25.320;2022-09-09T04:37:48;99828.88;;;20.66;48.54
73501;BME280;61721;42.206;25.320;2022-09-09T04:40:16;99829.34;;;20.76;48.37
73501;BME280;61721;42.206;25.320;2022-09-09T04:42:46;99819.09;;;20.84;48.51
73501;BME280;61721;42.206;25.320;2022-09-09T04:45:15;99818.47;;;20.89;48.45
73501;BME280;61721;42.206;25.320;2022-09-09T04:47:43;99819.16;;;20.98;48.47
73501;BME280;61721;42.206;25.320;2022-09-09T04:50:12;99816.22;;;21.06;48.35
73501;BME280;61721;42.206;25.320;2022-09-09T04:52:40;99823.19;;;21.21;48.31
73501;BME280;61721;42.206;25.320;2022-09-09T04:55:09;99827.81;;;21.41;47.85
73501;BME280;61721;42.206;25.320;2022-09-09T04:57:37;99831.59;;;21.53;47.86
73501;BME280;61721;42.206;25.320;2022-09-09T05:00:08;99825.47;;;21.64;47.63
73501;BME280;61721;42.206;25.320;2022-09-09T05:02:37;99828.22;;;21.77;47.69
73501;BME280;61721;42.206;25.320;2022-09-09T05:05:06;99832.59;;;21.91;47.35
73501;BME280;61721;42.206;25.320;2022-09-09T05:07:35;99819.19;;;22.03;47.44
73501;BME280;61721;42.206;25.320;2022-09-09T05:10:04;99821.03;;;22.15;46.81
73501;BME280;61721;42.206;25.320;2022-09-09T05:12:32;99825.63;;;22.22;46.92
73501;BME280;61721;42.206;25.320;2022-09-09T05:15:01;99834.44;;;22.24;47.27
73501;BME280;61721;42.206;25.320;2022-09-09T05:17:31;99838.16;;;22.36;46.73
73501;BME280;61721;42.206;25.320;2022-09-09T05:20:01;99843.41;;;22.44;46.97
73501;BME280;61721;42.206;25.320;2022-09-09T05:22:31;99835.78;;;22.59;46.50
73501;BME280;61721;42.206;25.320;2022-09-09T05:24:59;99830.91;;;22.68;46.80
73501;BME280;61721;42.206;25.320;2022-09-09T05:27:28;99830.06;;;22.80;46.14
73501;BME280;61721;42.206;25.320;2022-09-09T05:29:58;99834.00;;;22.84;46.57
73501;BME280;61721;42.206;25.320;2022-09-09T05:32:26;99843.44;;;22.88;46.65
73501;BME280;61721;42.206;25.320;2022-09-09T05:34:56;99832.41;;;23.01;46.35
73501;BME280;61721;42.206;25.320;2022-09-09T05:37:24;99838.91;;;23.07;45.79
73501;BME280;61721;42.206;25.320;2022-09-09T05:39:53;99832.84;;;23.05;46.26
73501;BME280;61721;42.206;25.320;2022-09-09T05:42:21;99836.41;;;23.06;45.84
73501;BME280;61721;42.206;25.320;2022-09-09T05:44:50;99823.91;;;23.16;46.00
73501;BME280;61721;42.206;25.320;2022-09-09T05:47:21;99829.53;;;23.28;45.66
73501;BME280;61721;42.206;25.320;2022-09-09T05:49:49;99831.47;;;23.52;45.30
73501;BME280;61721;42.206;25.320;2022-09-09T05:52:19;99832.41;;;23.64;45.15
73501;BME280;61721;42.206;25.320;2022-09-09T05:54:47;99844.53;;;23.75;44.90
73501;BME280;61721;42.206;25.320;2022-09-09T05:57:16;99848.31;;;23.74;44.92
73501;BME280;61721;42.206;25.320;2022-09-09T05:59:46;99850.00;;;23.93;44.60
73501;BME280;61721;42.206;25.320;2022-09-09T06:02:14;99832.03;;;24.04;44.34
73501;BME280;61721;42.206;25.320;2022-09-09T06:04:43;99840.34;;;24.15;44.07
73501;BME280;61721;42.206;25.320;2022-09-09T06:07:11;99834.84;;;24.22;43.86
73501;BME280;61721;42.206;25.320;2022-09-09T06:09:42;99836.78;;;24.33;43.62
73501;BME280;61721;42.206;25.320;2022-09-09T06:12:11;99835.19;;;24.44;43.44
73501;BME280;61721;42.206;25.320;2022-09-09T06:14:39;99837.84;;;24.68;42.66
73501;BME280;61721;42.206;25.320;2022-09-09T06:17:08;99845.34;;;24.91;42.43
73501;BME280;61721;42.206;25.320;2022-09-09T06:19:37;99854.22;;;25.05;42.41
73501;BME280;61721;42.206;25.320;2022-09-09T06:22:05;99852.16;;;25.30;42.09
73501;BME280;61721;42.206;25.320;2022-09-09T06:24:34;99849.66;;;25.59;41.38
73501;BME280;61721;42.206;25.320;2022-09-09T06:27:04;99842.88;;;25.73;41.38
73501;BME280;61721;42.206;25.320;2022-09-09T06:29:34;99834.28;;;25.92;40.55
73501;BME280;61721;42.206;25.320;2022-09-09T06:32:02;99828.44;;;26.01;40.57
73501;BME280;61721;42.206;25.320;2022-09-09T06:34:31;99831.44;;;26.22;40.06
73501;BME280;61721;42.206;25.320;2022-09-09T06:36:59;99823.59;;;26.54;39.01
73501;BME280;61721;42.206;25.320;2022-09-09T06:39:28;99824.31;;;27.01;38.55
73501;BME280;61721;42.206;25.320;2022-09-09T06:41:56;99832.44;;;27.41;37.68
73501;BME280;61721;42.206;25.320;2022-09-09T06:44:26;99826.34;;;27.68;37.55
73501;BME280;61721;42.206;25.320;2022-09-09T06:46:55;99826.00;;;28.19;36.48
73501;BME280;61721;42.206;25.320;2022-09-09T06:49:23;99814.06;;;28.52;35.79
73501;BME280;61721;42.206;25.320;2022-09-09T06:51:51;99811.13;;;28.80;35.28
73501;BME280;61721;42.206;25.320;2022-09-09T06:54:20;99822.81;;;29.41;34.25
73501;BME280;61721;42.206;25.320;2022-09-09T06:56:50;99818.66;;;29.70;33.68
73501;BME280;61721;42.206;25.320;2022-09-09T06:59:18;99822.00;;;29.77;33.64
73501;BME280;61721;42.206;25.320;2022-09-09T07:01:48;99808.44;;;30.08;33.45
73501;BME280;61721;42.206;25.320;2022-09-09T07:04:18;99819.53;;;30.65;32.05
73501;BME280;61721;42.206;25.320;2022-09-09T07:06:47;99820.94;;;30.68;32.13
73501;BME280;61721;42.206;25.320;2022-09-09T07:09:16;99820.13;;;30.20;32.67
73501;BME280;61721;42.206;25.320;2022-09-09T07:11:45;99816.69;;;29.34;34.41
73501;BME280;61721;42.206;25.320;2022-09-09T07:14:14;99831.47;;;28.36;36.25
73501;BME280;61721;42.206;25.320;2022-09-09T07:16:43;99835.69;;;28.22;36.56
73501;BME280;61721;42.206;25.320;2022-09-09T07:19:14;99832.50;;;28.30;36.60
73501;BME280;61721;42.206;25.320;2022-09-09T07:21:43;99833.72;;;28.61;35.98
73501;BME280;61721;42.206;25.320;2022-09-09T07:24:12;99849.59;;;30.09;33.78
73501;BME280;61721;42.206;25.320;2022-09-09T07:26:40;99848.53;;;32.95;28.70
73501;BME280;61721;42.206;25.320;2022-09-09T07:29:09;99851.09;;;34.04;27.54
73501;BME280;61721;42.206;25.320;2022-09-09T07:31:41;99851.56;;;34.68;26.27
73501;BME280;61721;42.206;25.320;2022-09-09T07:34:10;99847.16;;;34.39;26.44
73501;BME280;61721;42.206;25.320;2022-09-09T07:36:40;99849.94;;;33.42;28.05
73501;BME280;61721;42.206;25.320;2022-09-09T07:39:10;99855.91;;;32.51;29.22
73501;BME280;61721;42.206;25.320;2022-09-09T07:41:42;99861.44;;;31.19;31.17
73501;BME280;61721;42.206;25.320;2022-09-09T07:44:12;99854.47;;;30.44;33.19
73501;BME280;61721;42.206;25.320;2022-09-09T07:46:41;99850.19;;;29.80;34.28
73501;BME280;61721;42.206;25.320;2022-09-09T07:49:10;99845.28;;;29.55;34.71
73501;BME280;61721;42.206;25.320;2022-09-09T07:51:42;99845.97;;;29.72;34.64
73501;BME280;61721;42.206;25.320;2022-09-09T07:54:12;99842.28;;;29.93;34.72
73501;BME280;61721;42.206;25.320;2022-09-09T07:56:42;99850.94;;;30.02;34.30
73501;BME280;61721;42.206;25.320;2022-09-09T07:59:11;99838.84;;;30.13;34.59
73501;BME280;61721;42.206;25.320;2022-09-09T08:01:40;99837.28;;;30.27;33.90
73501;BME280;61721;42.206;25.320;2022-09-09T08:04:12;99835.84;;;30.67;33.66
73501;BME280;61721;42.206;25.320;2022-09-09T08:06:45;99834.00;;;30.35;34.00
73501;BME280;61721;42.206;25.320;2022-09-09T08:09:14;99824.25;;;30.23;34.18
73501;BME280;61721;42.206;25.320;2022-09-09T08:11:43;99821.66;;;30.48;34.02
73501;BME280;61721;42.206;25.320;2022-09-09T08:14:12;99809.09;;;30.87;33.33
73501;BME280;61721;42.206;25.320;2022-09-09T08:16:42;99800.59;;;31.19;33.16
73501;BME280;61721;42.206;25.320;2022-09-09T08:19:11;99802.00;;;31.17;33.20
73501;BME280;61721;42.206;25.320;2022-09-09T08:21:44;99798.28;;;30.81;32.75
73501;BME280;61721;42.206;25.320;2022-09-09T08:24:13;99801.75;;;30.46;33.13
73501;BME280;61721;42.206;25.320;2022-09-09T08:26:43;99797.13;;;30.62;32.97
73501;BME280;61721;42.206;25.320;2022-09-09T08:29:13;99797.25;;;30.97;32.89
73501;BME280;61721;42.206;25.320;2022-09-09T08:31:44;99788.44;;;31.35;31.95
73501;BME280;61721;42.206;25.320;2022-09-09T08:34:13;99795.69;;;31.57;32.45
73501;BME280;61721;42.206;25.320;2022-09-09T08:36:44;99788.19;;;31.72;31.92
73501;BME280;61721;42.206;25.320;2022-09-09T08:39:14;99794.00;;;31.76;32.10
73501;BME280;61721;42.206;25.320;2022-09-09T08:42:17;99792.91;;;31.62;32.46
73501;BME280;61721;42.206;25.320;2022-09-09T08:45:00;99786.78;;;31.90;31.49
73501;BME280;61721;42.206;25.320;2022-09-09T08:47:37;99789.78;;;32.24;31.11
73501;BME280;61721;42.206;25.320;2022-09-09T08:50:21;99773.91;;;32.45;30.85
73501;BME280;61721;42.206;25.320;2022-09-09T08:53:01;99767.50;;;32.54;30.94
73501;BME280;61721;42.206;25.320;2022-09-09T08:55:39;99769.19;;;32.99;30.23
73501;BME280;61721;42.206;25.320;2022-09-09T08:58:12;99772.19;;;32.64;30.57
73501;BME280;61721;42.206;25.320;2022-09-09T09:00:58;99773.81;;;32.70;30.53
73501;BME280;61721;42.206;25.320;2022-09-09T09:03:35;99774.53;;;33.30;29.93
73501;BME280;61721;42.206;25.320;2022-09-09T09:06:23;99772.72;;;33.49;29.75
73501;BME280;61721;42.206;25.320;2022-09-09T09:09:00;99763.59;;;33.43;29.80
73501;BME280;61721;42.206;25.320;2022-09-09T09:11:35;99755.28;;;33.43;29.57
73501;BME280;61721;42.206;25.320;2022-09-09T09:14:09;99755.22;;;33.48;29.18
73501;BME280;61721;42.206;25.320;2022-09-09T09:16:47;99761.22;;;33.61;29.19
73501;BME280;61721;42.206;25.320;2022-09-09T09:19:17;99760.09;;;33.33;29.55
73501;BME280;61721;42.206;25.320;2022-09-09T09:21:53;99748.38;;;33.41;29.07
73501;BME280;61721;42.206;25.320;2022-09-09T09:24:28;99751.31;;;33.16;29.71
73501;BME280;61721;42.206;25.320;2022-09-09T09:27:01;99754.34;;;33.24;29.79
73501;BME280;61721;42.206;25.320;2022-09-09T09:29:38;99734.19;;;33.76;29.44
73501;BME280;61721;42.206;25.320;2022-09-09T09:32:10;99733.22;;;34.10;28.76
73501;BME280;61721;42.206;25.320;2022-09-09T09:34:41;99736.00;;;34.10;28.84
73501;BME280;61721;42.206;25.320;2022-09-09T09:37:15;99735.06;;;33.96;29.06
73501;BME280;61721;42.206;25.320;2022-09-09T09:39:48;99731.00;;;34.12;28.59
73501;BME280;61721;42.206;25.320;2022-09-09T09:42:17;99735.94;;;34.15;28.87
73501;BME280;61721;42.206;25.320;2022-09-09T09:44:46;99724.78;;;34.44;28.25
73501;BME280;61721;42.206;25.320;2022-09-09T09:47:16;99722.72;;;34.92;28.41
73501;BME280;61721;42.206;25.320;2022-09-09T09:49:52;99725.78;;;35.28;27.26
73501;BME280;61721;42.206;25.320;2022-09-09T09:52:22;99726.63;;;34.91;27.95
73501;BME280;61721;42.206;25.320;2022-09-09T09:54:54;99721.47;;;34.60;27.74
73501;BME280;61721;42.206;25.320;2022-09-09T09:57:26;99710.63;;;34.21;28.32
73501;BME280;61721;42.206;25.320;2022-09-09T10:00:04;99703.34;;;34.68;28.15
73501;BME280;61721;42.206;25.320;2022-09-09T10:02:41;99700.00;;;34.47;28.41
73501;BME280;61721;42.206;25.320;2022-09-09T10:05:14;99711.84;;;34.34;28.20
73501;BME280;61721;42.206;25.320;2022-09-09T10:07:44;99720.31;;;34.24;28.49
73501;BME280;61721;42.206;25.320;2022-09-09T10:10:19;99709.72;;;34.02;28.77
73501;BME280;61721;42.206;25.320;2022-09-09T10:13:01;99700.38;;;34.59;28.19
73501;BME280;61721;42.206;25.320;2022-09-09T10:15:40;99693.13;;;35.33;27.03
73501;BME280;61721;42.206;25.320;2022-09-09T10:18:26;99687.56;;;35.33;27.00
73501;BME280;61721;42.206;25.320;2022-09-09T10:21:03;99691.38;;;35.37;27.31
73501;BME280;61721;42.206;25.320;2022-09-09T10:23:52;99696.44;;;35.16;27.61
73501;BME280;61721;42.206;25.320;2022-09-09T10:26:35;99685.97;;;34.76;28.14
73501;BME280;61721;42.206;25.320;2022-09-09T10:29:30;99681.06;;;34.87;28.12
73501;BME280;61721;42.206;25.320;2022-09-09T10:32:29;99680.19;;;34.72;27.96
73501;BME280;61721;42.206;25.320;2022-09-09T10:35:08;99681.03;;;34.73;28.27
73501;BME280;61721;42.206;25.320;2022-09-09T10:37:49;99677.16;;;34.50;27.87
73501;BME280;61721;42.206;25.320;2022-09-09T10:40:29;99674.13;;;34.65;28.17
73501;BME280;61721;42.206;25.320;2022-09-09T10:43:11;99668.88;;;35.20;27.28
73501;BME280;61721;42.206;25.320;2022-09-09T10:45:51;99657.00;;;35.60;26.97
73501;BME280;61721;42.206;25.320;2022-09-09T10:48:31;99662.47;;;35.66;26.87
73501;BME280;61721;42.206;25.320;2022-09-09T10:51:18;99660.69;;;34.91;28.01
73501;BME280;61721;42.206;25.320;2022-09-09T10:54:05;99657.94;;;34.72;27.73
73501;BME280;61721;42.206;25.320;2022-09-09T10:56:37;99656.88;;;34.87;27.94
73501;BME280;61721;42.206;25.320;2022-09-09T10:59:13;99654.28;;;35.09;27.00
73501;BME280;61721;42.206;25.320;2022-09-09T11:01:49;99642.28;;;35.28;26.88
73501;BME280;61721;42.206;25.320;2022-09-09T11:04:22;99638.19;;;35.52;26.78
73501;BME280;61721;42.206;25.320;2022-09-09T11:06:54;99631.00;;;35.92;26.63
73501;BME280;61721;42.206;25.320;2022-09-09T11:09:27;99623.19;;;35.81;26.88
73501;BME280;61721;42.206;25.320;2022-09-09T11:11:58;99628.81;;;35.48;27.34
73501;BME280;61721;42.206;25.320;2022-09-09T11:14:36;99629.97;;;35.15;27.55
73501;BME280;61721;42.206;25.320;2022-09-09T11:17:10;99617.78;;;35.43;26.59
73501;BME280;61721;42.206;25.320;2022-09-09T11:19:40;99607.47;;;35.11;27.36
73501;BME280;61721;42.206;25.320;2022-09-09T11:22:18;99608.78;;;35.19;26.76
73501;BME280;61721;42.206;25.320;2022-09-09T11:24:52;99615.19;;;35.47;26.86
73501;BME280;61721;42.206;25.320;2022-09-09T11:27:31;99611.53;;;35.79;26.83
73501;BME280;61721;42.206;25.320;2022-09-09T11:30:16;99605.41;;;36.04;26.46
73501;BME280;61721;42.206;25.320;2022-09-09T11:33:02;99615.31;;;36.10;26.64
73501;BME280;61721;42.206;25.320;2022-09-09T11:35:42;99604.53;;;36.31;26.18
73501;BME280;61721;42.206;25.320;2022-09-09T11:38:19;99600.84;;;36.22;26.07
73501;BME280;61721;42.206;25.320;2022-09-09T11:40:55;99599.81;;;36.04;26.12
73501;BME280;61721;42.206;25.320;2022-09-09T11:43:29;99600.41;;;36.28;26.22
73501;BME280;61721;42.206;25.320;2022-09-09T11:46:02;99587.69;;;36.58;25.78
73501;BME280;61721;42.206;25.320;2022-09-09T11:48:33;99579.75;;;36.29;25.99
73501;BME280;61721;42.206;25.320;2022-09-09T11:51:06;99575.66;;;36.13;26.44
73501;BME280;61721;42.206;25.320;2022-09-09T11:53:36;99563.63;;;36.40;26.10
73501;BME280;61721;42.206;25.320;2022-09-09T11:56:25;99559.94;;;36.67;25.76
73501;BME280;61721;42.206;25.320;2022-09-09T11:58:56;99554.69;;;36.74;25.53
73501;BME280;61721;42.206;25.320;2022-09-09T12:01:38;99553.00;;;36.87;25.53
73501;BME280;61721;42.206;25.320;2022-09-09T12:04:29;99544.47;;;36.92;25.47
73501;BME280;61721;42.206;25.320;2022-09-09T12:07:01;99557.97;;;36.98;25.21
73501;BME280;61721;42.206;25.320;2022-09-09T12:09:43;99554.84;;;36.69;25.57
73501;BME280;61721;42.206;25.320;2022-09-09T12:12:30;99549.13;;;36.74;25.21
73501;BME280;61721;42.206;25.320;2022-09-09T12:15:22;99547.84;;;36.35;25.67
73501;BME280;61721;42.206;25.320;2022-09-09T12:17:55;99544.19;;;36.71;25.47
73501;BME280;61721;42.206;25.320;2022-09-09T12:20:31;99542.66;;;36.65;24.79
73501;BME280;61721;42.206;25.320;2022-09-09T12:23:19;99528.00;;;36.59;25.55
73501;BME280;61721;42.206;25.320;2022-09-09T12:28:54;99519.22;;;36.97;24.92
73501;BME280;61721;42.206;25.320;2022-09-09T12:31:27;99514.09;;;37.12;24.96
73501;BME280;61721;42.206;25.320;2022-09-09T12:34:09;99509.97;;;37.10;24.98
73501;BME280;61721;42.206;25.320;2022-09-09T12:36:40;99500.47;;;37.59;24.35
73501;BME280;61721;42.206;25.320;2022-09-09T12:39:17;99501.00;;;37.87;24.17
73501;BME280;61721;42.206;25.320;2022-09-09T12:41:53;99487.66;;;37.58;24.42
73501;BME280;61721;42.206;25.320;2022-09-09T12:44:29;99490.75;;;36.77;25.10
73501;BME280;61721;42.206;25.320;2022-09-09T12:47:01;99487.06;;;36.24;25.62
73501;BME280;61721;42.206;25.320;2022-09-09T12:49:39;99478.97;;;36.36;25.27
73501;BME280;61721;42.206;25.320;2022-09-09T12:52:13;99477.00;;;36.36;25.24
73501;BME280;61721;42.206;25.320;2022-09-09T12:54:45;99478.34;;;36.03;25.62
73501;BME280;61721;42.206;25.320;2022-09-09T12:57:15;99476.81;;;35.97;25.48
73501;BME280;61721;42.206;25.320;2022-09-09T12:59:44;99468.72;;;36.09;25.14
73501;BME280;61721;42.206;25.320;2022-09-09T13:02:21;99471.91;;;36.38;25.04
73501;BME280;61721;42.206;25.320;2022-09-09T13:04:52;99459.84;;;36.74;24.16
73501;BME280;61721;42.206;25.320;2022-09-09T13:07:21;99458.88;;;37.09;24.30
73501;BME280;61721;42.206;25.320;2022-09-09T13:09:53;99456.63;;;36.80;24.39
73501;BME280;61721;42.206;25.320;2022-09-09T13:12:23;99459.13;;;36.91;24.44
73501;BME280;61721;42.206;25.320;2022-09-09T13:14:53;99458.16;;;36.64;24.34
73501;BME280;61721;42.206;25.320;2022-09-09T13:17:24;99452.66;;;36.28;24.86
73501;BME280;61721;42.206;25.320;2022-09-09T13:19:55;99445.59;;;36.53;24.67
73501;BME280;61721;42.206;25.320;2022-09-09T13:22:29;99442.06;;;36.92;24.10
73501;BME280;61721;42.206;25.320;2022-09-09T13:25:01;99440.91;;;37.33;23.73